• Join FlightAware (Why Join?)
  • Login
  • US Flag 
05:09PM EDT


 

Airport Tracker/Info


-or-


 

Live Flight TrackerFlight Track Log ✈ SLQ9743 ✈ 05-May-2012 ✈ KJFK - CYHM

Flight Track Log - Related Links

Times and Time Zones

All times are in EDT time to prevent confusion due to time zone crossing. See the SLQ9743 flight status page for this flight to view local times or setup timezone preferences in your user account.

Time Position Orientation Groundspeed Altitude Reporting Facility
EDT Latitude Longitude Course Direction KTS MPH feet Rate Location/Type
02:45AM 40.6333 -73.7333 90° East 149 171 1,700  Level New York TRACON
02:46AM 40.6333 -73.6833 21° North 162 186 9,200 2,040 Climbing New York TRACON
02:47AM 40.6667 -73.6667 323° Northwest 167 192 5,800 -720 Descending New York TRACON
02:48AM 40.7000 -73.7000 333° Northwest 153 176 7,800 1,920 Climbing New York TRACON
02:49AM 40.7500 -73.7333 323° Northwest 164 189 9,700 1,920 Climbing New York TRACON
02:50AM 40.7833 -73.7667 323° Northwest 169 194 11,700 1,860 Climbing New York TRACON
02:52AM 40.8572 -73.8411 327° Northwest 168 193 15,300 1,620 Climbing New York Center
02:53AM 40.8939 -73.8731 318° Northwest 163 188 16,700 840 Climbing New York Center
02:54AM 40.9342 -73.9217 327° Northwest 185 213 17,100 1,020 Climbing New York Center
02:55AM 40.9789 -73.9594 326° Northwest 198 228 18,800 1,380 Climbing New York Center
02:56AM 41.0178 -73.9942 296° West 181 208 19,900 600 Climbing New York Center
02:57AM 41.0408 -74.0558 297° West 171 197 20,000  Climbing New York Center
02:58AM 41.0681 -74.1258 302° West 195 224 20,000  Level New York Center
02:59AM 41.0956 -74.1850 301° West 215 247 20,000  Level New York Center
03:00AM 41.1347 -74.2725 303° West 228 262 20,100  Climbing New York Center
03:01AM 41.1719 -74.3489 297° West 233 268 20,000 -60 Descending New York Center
03:02AM 41.2028 -74.4278 301° West 234 269 20,000  Level New York Center
03:03AM 41.2361 -74.5011 301° West 234 269 20,000  Level New York Center
03:04AM 41.2692 -74.5747 300° West 239 275 20,100  Climbing New York Center
03:05AM 41.3019 -74.6511 297° West 232 267 20,000 -60 Descending New York Center
03:06AM 41.3269 -74.7161 300° West 232 267 20,000  Level New York Center
03:07AM 41.3558 -74.7842 300° West 227 261 20,000  Level New York Center
03:08AM 41.3847 -74.8522 301° West 227 261 20,000  Level New York Center
03:09AM 41.4156 -74.9206 299° West 222 255 20,000  Level New York Center
03:10AM 41.4444 -74.9889 301° West 217 250 20,100  Climbing New York Center
03:11AM 41.4733 -75.0542 301° West 217 250 20,100 -60 Level New York Center
03:12AM 41.5042 -75.1228 302° West 211 243 20,000  Descending New York Center
03:13AM 41.5350 -75.1883 301° West 211 243 20,100  Climbing New York Center
03:14AM 41.5678 -75.2600 298° West 217 250 20,000 -60 Descending New York Center
03:15AM 41.5944 -75.3283 299° West 217 250 20,000  Level New York Center
03:16AM 41.6231 -75.3967 305° West 212 244 20,100  Climbing New York Center
03:17AM 41.6558 -75.4603 294° West 212 244 20,100  Level New York Center
03:18AM 41.6800 -75.5314 297° West 212 244 20,100  Level New York Center
03:19AM 41.7064 -75.5997 296° West 212 244 20,100 -60 Level New York Center
03:20AM 41.7328 -75.6711 303° West 207 238 20,000 -60 Descending New York Center
03:21AM 41.7653 -75.7375 297° West 207 238 20,000  Level New York Center
03:22AM 41.7917 -75.8064 300° West 207 238 20,000  Level New York Center
03:23AM 41.8219 -75.8756 300° West 207 238 20,000  Level New York Center
03:24AM 41.8503 -75.9417 299° West 207 238 20,000  Level New York Center
03:25AM 41.8786 -76.0106 301° West 207 238 20,000  Level New York Center
03:26AM 41.9128 -76.0858 299° West 207 238 20,000  Level New York Center
03:27AM 41.9408 -76.1550 297° West 212 244 20,000  Level New York Center
03:28AM 41.9667 -76.2242 303° West 212 244 20,000  Level New York Center
03:29AM 41.9992 -76.2908 307° West 207 238 20,000 -60 Level New York Center
03:30AM 42.0336 -76.3525 292° West 207 238 19,900  Descending New York Center
03:31AM 42.0553 -76.4242 297° West 212 244 20,000  Climbing New York Center
03:32AM 42.0831 -76.4964 297° West 212 244 20,000  Level New York Center
03:33AM 42.1089 -76.5656 298° West 212 244 20,000  Level New York Center
03:34AM 42.1367 -76.6353 300° West 212 244 20,100  Climbing New York Center
03:34AM 42.1586 -76.6864 299° West 211 243 20,000 -120 Descending Cleveland Center
03:35AM 42.1883 -76.7603 297° West 216 249 19,900  Descending Cleveland Center
03:36AM 42.2158 -76.8317 297° West 216 249 20,000  Climbing Cleveland Center
03:37AM 42.2431 -76.9031 299° West 216 249 20,000  Level Cleveland Center
03:38AM 42.2700 -76.9689 300° West 216 249 20,100  Climbing Cleveland Center
03:39AM 42.2994 -77.0372 300° West 211 243 20,000 -60 Descending Cleveland Center
03:40AM 42.3286 -77.1058 296° West 219 252 20,000  Level Cleveland Center
03:41AM 42.3536 -77.1747 300° West 214 246 20,000  Level Cleveland Center
03:42AM 42.3828 -77.2436 298° West 209 241 20,000  Level Cleveland Center
03:43AM 42.4097 -77.3125 301° West 209 241 20,000  Level Cleveland Center
03:44AM 42.4386 -77.3786 296° West 214 246 20,100  Climbing Cleveland Center
03:45AM 42.4611 -77.4422 299° West 214 246 20,100 -60 Level Cleveland Center
03:46AM 42.4925 -77.5194 299° West 214 246 20,000 -60 Descending Cleveland Center
03:47AM 42.5192 -77.5858 296° West 209 241 20,000  Level Cleveland Center
03:48AM 42.5439 -77.6550 300° West 209 241 20,000  Level Cleveland Center
03:49AM 42.5728 -77.7242 300° West 209 241 20,000  Level Cleveland Center
03:50AM 42.6014 -77.7906 296° West 209 241 20,100  Climbing Cleveland Center
03:51AM 42.6261 -77.8600 302° West 209 241 20,000 -60 Descending Cleveland Center
03:52AM 42.6569 -77.9264 296° West 209 241 20,000  Level Cleveland Center
03:53AM 42.6814 -77.9933 296° West 203 234 20,000  Level Cleveland Center
03:54AM 42.7078 -78.0656 298° West 208 239 20,000  Level Cleveland Center
03:55AM 42.7322 -78.1269 298° West 208 239 20,000 -120 Level Cleveland Center
03:56AM 42.7586 -78.1936 295° West 208 239 19,800 -660 Descending Cleveland Center
03:57AM 42.7853 -78.2719 299° West 214 246 18,700 -1,020 Descending Cleveland Center
03:58AM 42.8181 -78.3528 297° West 232 267 17,800 -960 Descending Cleveland Center
03:59AM 42.8489 -78.4367 298° West 238 274 16,800 -960 Descending Cleveland Center
04:00AM 42.8817 -78.5206 297° West 244 281 15,900 -960 Descending Cleveland Center
04:01AM 42.9144 -78.6072 293° West 244 281 14,900 -1,320 Descending Cleveland Center
04:02AM 42.9431 -78.6972 283° West 249 287 13,300 -1,500 Descending Cleveland Center
04:03AM 42.9592 -78.7931 285° West 254 292 12,000 -1,260 Descending Cleveland Center
04:04AM 42.9772 -78.8864 278° West 254 292 10,800 -1,200 Descending Cleveland Center
04:05AM 42.9833 -78.9500 285° West 250 288 9,700 -1,560 Descending Toronto Center
04:06AM 43.0000 -79.0333 283° West 240 276 7,800 -2,100 Descending Toronto Center
04:07AM 43.0167 -79.1333 285° West 250 288 5,500 -2,100 Descending Toronto Center
04:08AM 43.0333 -79.2167 283° West 250 288 3,700 -1,200 Descending Toronto Center
04:09AM 43.0500 -79.3167 285° West 250 288 3,100 -300 Descending Toronto Center
04:10AM 43.0667 -79.4000 289° West 230 265 3,100  Level Toronto Center
04:11AM 43.0833 -79.4667 289° West 220 253 3,100  Level Toronto Center